Terminal Aerodrome Forecast
Issued by NWS Buffalo, NY

Home | Current Version | Previous Version | Text Only | Print | Product List | Glossary On
Versions: 1 2 3 4 5 6 7 8 9 10 11 12 13 14 15 16 17 18 19 20 21 22 23 24
000
FTUS41 KBUF 222300 RRA
TAFROC
TAF
KROC 222343Z 2300/2324 15005KT P6SM BKN200
     FM230200 15005KT P6SM BKN045 OVC200
     FM230600 14006KT P6SM VCSH BKN030 OVC080
     FM231000 12005KT P6SM OVC045
     FM231600 12008KT P6SM BKN050=

USA.gov is the U.S. government's official web portal to all federal, state and local government web resources and services.